RUC1930 SVBM-MPTO
Flight info
| Callsign | RUC1930 |
|---|---|
| Flight time | 1h 30m |
| Altitude | 24000 |
| Route | ATEXA1 KOKRY W9 OPKUN/N0458F360 UW5 UBDIM/N0454F380 UP650 ESEDA MEVID1 |
| Aircraft | B737/M-SDE2E3FGHIRWXY/LB1 |
Departure
| Time | 2026-04-20 21:51 |
|---|---|
| Airport | Jacinto Lara International Airport (SVBM) |
Arrival
| Time | 2026-04-20 23:21 |
|---|---|
| Airport | Tocumen International Airport (MPTO) |
| Time | Latitude | Longitude | Altitude | Speed | Heading |
|---|---|---|---|---|---|
| 2026-04-20 21:29 | 10.04535 | -69.35915 | 2033 ft | 0 kts | 352° |
| 2026-04-20 21:39 | 10.04532 | -69.35915 | 2040 ft | 2 kts | 352° |
| 2026-04-20 21:39 | 10.04513 | -69.35912 | 2033 ft | 3 kts | 348° |
| 2026-04-20 21:39 | 10.04494 | -69.35907 | 2033 ft | 3 kts | 345° |
| 2026-04-20 21:40 | 10.04474 | -69.35901 | 2043 ft | 3 kts | 340° |
| 2026-04-20 21:40 | 10.04455 | -69.35893 | 2033 ft | 3 kts | 331° |
| 2026-04-20 21:40 | 10.04439 | -69.35882 | 2033 ft | 3 kts | 307° |
| 2026-04-20 21:40 | 10.04433 | -69.35869 | 2039 ft | 1 kts | 264° |
| 2026-04-20 21:41 | 10.04433 | -69.35867 | 2033 ft | 0 kts | 262° |
| 2026-04-20 21:47 | 10.04425 | -69.35916 | 2039 ft | 15 kts | 261° |
| 2026-04-20 21:47 | 10.04408 | -69.36023 | 2033 ft | 15 kts | 260° |
| 2026-04-20 21:47 | 10.04392 | -69.36121 | 2033 ft | 14 kts | 261° |
| 2026-04-20 21:47 | 10.04371 | -69.36255 | 2033 ft | 21 kts | 261° |
| 2026-04-20 21:48 | 10.04349 | -69.36394 | 2033 ft | 19 kts | 261° |
| 2026-04-20 21:48 | 10.04330 | -69.36523 | 2041 ft | 17 kts | 261° |
| 2026-04-20 21:48 | 10.04313 | -69.36636 | 2033 ft | 15 kts | 261° |
| 2026-04-20 21:48 | 10.04296 | -69.36737 | 2038 ft | 13 kts | 259° |
| 2026-04-20 21:49 | 10.04280 | -69.36826 | 2033 ft | 12 kts | 259° |
| 2026-04-20 21:49 | 10.04265 | -69.36917 | 2033 ft | 14 kts | 261° |
| 2026-04-20 21:49 | 10.04249 | -69.37026 | 2033 ft | 16 kts | 262° |
| 2026-04-20 21:49 | 10.04208 | -69.37122 | 2035 ft | 15 kts | 204° |
| 2026-04-20 21:50 | 10.04104 | -69.37127 | 2039 ft | 15 kts | 191° |
| 2026-04-20 21:50 | 10.04063 | -69.37120 | 2031 ft | 2 kts | 107° |
| 2026-04-20 21:50 | 10.04065 | -69.37075 | 2034 ft | 18 kts | 81° |
| 2026-04-20 21:50 | 10.04126 | -69.36687 | 2032 ft | 92 kts | 81° |
| 2026-04-20 21:51 | 10.04258 | -69.35828 | 2034 ft | 155 kts | 81° |
| 2026-04-20 21:51 | 10.04452 | -69.34568 | 2197 ft | 197 kts | 81° |
| 2026-04-20 21:51 | 10.04663 | -69.33175 | 3064 ft | 202 kts | 81° |
| 2026-04-20 21:51 | 10.04864 | -69.31834 | 4166 ft | 190 kts | 81° |
| 2026-04-20 21:52 | 10.05381 | -69.30552 | 4647 ft | 211 kts | 49° |
| 2026-04-20 21:52 | 10.06726 | -69.29756 | 4868 ft | 242 kts | 10° |
| 2026-04-20 21:52 | 10.08470 | -69.29924 | 5210 ft | 269 kts | 337° |
| 2026-04-20 21:52 | 10.09966 | -69.31113 | 5982 ft | 279 kts | 306° |
| 2026-04-20 21:53 | 10.10783 | -69.32883 | 6881 ft | 283 kts | 283° |
| 2026-04-20 21:53 | 10.11086 | -69.34871 | 7785 ft | 287 kts | 277° |
| 2026-04-20 21:53 | 10.11277 | -69.36917 | 8657 ft | 292 kts | 275° |
| 2026-04-20 21:53 | 10.11443 | -69.38984 | 9489 ft | 296 kts | 275° |
| 2026-04-20 21:54 | 10.11608 | -69.41063 | 10332 ft | 300 kts | 275° |
| 2026-04-20 21:54 | 10.11788 | -69.43251 | 10658 ft | 325 kts | 275° |
| 2026-04-20 21:54 | 10.11995 | -69.45628 | 10867 ft | 348 kts | 275° |
| 2026-04-20 21:54 | 10.12212 | -69.48106 | 11432 ft | 358 kts | 276° |
| 2026-04-20 21:55 | 10.12440 | -69.50627 | 12210 ft | 360 kts | 276° |
| 2026-04-20 21:55 | 10.12675 | -69.53178 | 13034 ft | 362 kts | 276° |
| 2026-04-20 21:55 | 10.12915 | -69.55762 | 13705 ft | 369 kts | 276° |
| 2026-04-20 21:55 | 10.13159 | -69.58358 | 14423 ft | 373 kts | 276° |
| 2026-04-20 21:56 | 10.13405 | -69.61006 | 15121 ft | 378 kts | 276° |
| 2026-04-20 21:56 | 10.13649 | -69.63665 | 15765 ft | 383 kts | 275° |
| 2026-04-20 21:56 | 10.13660 | -69.66361 | 16388 ft | 387 kts | 266° |
| 2026-04-20 21:56 | 10.13427 | -69.69121 | 17016 ft | 392 kts | 264° |
| 2026-04-20 21:57 | 10.13146 | -69.71886 | 17598 ft | 396 kts | 264° |
| 2026-04-20 21:57 | 10.12851 | -69.74675 | 18165 ft | 400 kts | 264° |
| 2026-04-20 21:57 | 10.12559 | -69.77480 | 18716 ft | 404 kts | 264° |
| 2026-04-20 21:57 | 10.12272 | -69.80331 | 19260 ft | 408 kts | 264° |
| 2026-04-20 21:58 | 10.11989 | -69.83226 | 19798 ft | 411 kts | 265° |
| 2026-04-20 21:58 | 10.11712 | -69.86120 | 20302 ft | 415 kts | 265° |
| 2026-04-20 21:58 | 10.11438 | -69.89032 | 20793 ft | 418 kts | 265° |
| 2026-04-20 21:58 | 10.11162 | -69.91980 | 21238 ft | 422 kts | 265° |
| 2026-04-20 21:59 | 10.10882 | -69.94974 | 21683 ft | 425 kts | 265° |
| 2026-04-20 21:59 | 10.10603 | -69.97981 | 22133 ft | 428 kts | 265° |
| 2026-04-20 21:59 | 10.10323 | -70.00975 | 22553 ft | 431 kts | 265° |
| 2026-04-20 21:59 | 10.10037 | -70.04038 | 22954 ft | 434 kts | 265° |
| 2026-04-20 22:00 | 10.09753 | -70.07080 | 23337 ft | 436 kts | 265° |
| 2026-04-20 22:00 | 10.09465 | -70.10162 | 23713 ft | 439 kts | 265° |
| 2026-04-20 22:00 | 10.09178 | -70.13228 | 24080 ft | 442 kts | 265° |
| 2026-04-20 22:00 | 10.08886 | -70.16326 | 24416 ft | 444 kts | 265° |
| 2026-04-20 22:01 | 10.08590 | -70.19470 | 24779 ft | 445 kts | 265° |
| 2026-04-20 22:01 | 10.08297 | -70.22584 | 25137 ft | 447 kts | 265° |
| 2026-04-20 22:01 | 10.07999 | -70.25750 | 25492 ft | 448 kts | 265° |
| 2026-04-20 22:01 | 10.07701 | -70.28913 | 25827 ft | 450 kts | 265° |
| 2026-04-20 22:02 | 10.07405 | -70.32052 | 26144 ft | 452 kts | 265° |
| 2026-04-20 22:02 | 10.07103 | -70.35253 | 26455 ft | 454 kts | 265° |
| 2026-04-20 22:02 | 10.06800 | -70.38452 | 26764 ft | 455 kts | 265° |
| 2026-04-20 22:02 | 10.06499 | -70.41633 | 27070 ft | 456 kts | 265° |
| 2026-04-20 22:03 | 10.06194 | -70.44857 | 27372 ft | 458 kts | 265° |
| 2026-04-20 22:03 | 10.05889 | -70.48063 | 27664 ft | 459 kts | 265° |
| 2026-04-20 22:03 | 10.05581 | -70.51308 | 27942 ft | 461 kts | 265° |
| 2026-04-20 22:03 | 10.05277 | -70.54521 | 28203 ft | 462 kts | 265° |
| 2026-04-20 22:04 | 10.04966 | -70.57788 | 28449 ft | 464 kts | 265° |
| 2026-04-20 22:04 | 10.04654 | -70.61067 | 28700 ft | 466 kts | 265° |
| 2026-04-20 22:04 | 10.04344 | -70.64320 | 28946 ft | 467 kts | 265° |
| 2026-04-20 22:04 | 10.04030 | -70.67608 | 29220 ft | 468 kts | 265° |
| 2026-04-20 22:05 | 10.03714 | -70.70918 | 29472 ft | 469 kts | 264° |
| 2026-04-20 22:05 | 10.03398 | -70.74215 | 29685 ft | 470 kts | 264° |
| 2026-04-20 22:05 | 10.03081 | -70.77517 | 29885 ft | 472 kts | 264° |
| 2026-04-20 22:05 | 10.02763 | -70.80839 | 30101 ft | 474 kts | 264° |
| 2026-04-20 22:06 | 10.02446 | -70.84154 | 30333 ft | 474 kts | 264° |
| 2026-04-20 22:06 | 10.02128 | -70.87467 | 30662 ft | 473 kts | 264° |
| 2026-04-20 22:06 | 10.01809 | -70.90791 | 31085 ft | 469 kts | 264° |
| 2026-04-20 22:06 | 10.01495 | -70.94060 | 31532 ft | 466 kts | 264° |
| 2026-04-20 22:07 | 10.01179 | -70.97336 | 31934 ft | 464 kts | 264° |
| 2026-04-20 22:07 | 10.00864 | -71.00600 | 32315 ft | 462 kts | 264° |
| 2026-04-20 22:07 | 10.00553 | -71.03823 | 32682 ft | 460 kts | 264° |
| 2026-04-20 22:07 | 10.00240 | -71.07062 | 33075 ft | 458 kts | 264° |
| 2026-04-20 22:08 | 9.99931 | -71.10250 | 33496 ft | 456 kts | 264° |
| 2026-04-20 22:08 | 9.99618 | -71.13465 | 33971 ft | 452 kts | 263° |
| 2026-04-20 22:08 | 9.99311 | -71.16630 | 34459 ft | 448 kts | 263° |
| 2026-04-20 22:08 | 9.99010 | -71.19748 | 34816 ft | 447 kts | 263° |
| 2026-04-20 22:09 | 9.98707 | -71.22877 | 35043 ft | 449 kts | 263° |
| 2026-04-20 22:09 | 9.98398 | -71.26055 | 35282 ft | 450 kts | 263° |
| 2026-04-20 22:09 | 9.98094 | -71.29176 | 35680 ft | 446 kts | 263° |
| 2026-04-20 22:09 | 9.97787 | -71.32331 | 36087 ft | 443 kts | 263° |
| 2026-04-20 22:10 | 9.97488 | -71.35429 | 36321 ft | 444 kts | 263° |
| 2026-04-20 22:10 | 9.97188 | -71.38526 | 36442 ft | 447 kts | 263° |
| 2026-04-20 22:10 | 9.96878 | -71.41696 | 36636 ft | 448 kts | 263° |
| 2026-04-20 22:10 | 9.96573 | -71.44804 | 37044 ft | 443 kts | 263° |
| 2026-04-20 22:11 | 9.96270 | -71.47902 | 37479 ft | 438 kts | 263° |
| 2026-04-20 22:11 | 9.95966 | -71.50989 | 37779 ft | 436 kts | 263° |
| 2026-04-20 22:11 | 9.95667 | -71.54027 | 38027 ft | 435 kts | 263° |
| 2026-04-20 22:11 | 9.95369 | -71.57060 | 38286 ft | 433 kts | 263° |
| 2026-04-20 22:12 | 9.95069 | -71.60114 | 38469 ft | 433 kts | 263° |
| 2026-04-20 22:12 | 9.94771 | -71.63140 | 38605 ft | 435 kts | 263° |
| 2026-04-20 22:12 | 9.94469 | -71.66196 | 38790 ft | 434 kts | 263° |
| 2026-04-20 22:12 | 9.94172 | -71.69235 | 38987 ft | 434 kts | 263° |
| 2026-04-20 22:13 | 9.93971 | -71.71280 | 39102 ft | 434 kts | 263° |
| 2026-04-20 22:13 | 9.93569 | -71.75351 | 39306 ft | 434 kts | 263° |
| 2026-04-20 22:13 | 9.93368 | -71.77382 | 39422 ft | 434 kts | 263° |
| 2026-04-20 22:13 | 9.92969 | -71.81408 | 39658 ft | 433 kts | 263° |
| 2026-04-20 22:14 | 9.92768 | -71.83441 | 39770 ft | 433 kts | 263° |
| 2026-04-20 22:14 | 9.92366 | -71.87496 | 39915 ft | 434 kts | 263° |
| 2026-04-20 22:14 | 9.92162 | -71.89545 | 39918 ft | 436 kts | 263° |
| 2026-04-20 22:15 | 9.91554 | -71.95667 | 39937 ft | 440 kts | 263° |
| 2026-04-20 22:15 | 9.90936 | -72.01886 | 39936 ft | 444 kts | 263° |
| 2026-04-20 22:16 | 9.90310 | -72.08163 | 39931 ft | 446 kts | 263° |
| 2026-04-20 22:16 | 9.89689 | -72.14393 | 39925 ft | 447 kts | 263° |
| 2026-04-20 22:17 | 9.89059 | -72.20691 | 39923 ft | 447 kts | 263° |
| 2026-04-20 22:17 | 9.88431 | -72.26972 | 39910 ft | 447 kts | 263° |
| 2026-04-20 22:18 | 9.87804 | -72.33218 | 39915 ft | 446 kts | 263° |
| 2026-04-20 22:18 | 9.87175 | -72.39460 | 39915 ft | 445 kts | 263° |
| 2026-04-20 22:19 | 9.86544 | -72.45724 | 39917 ft | 445 kts | 263° |
| 2026-04-20 22:19 | 9.85913 | -72.51979 | 39904 ft | 445 kts | 263° |
| 2026-04-20 22:20 | 9.85282 | -72.58213 | 39909 ft | 445 kts | 263° |
| 2026-04-20 22:20 | 9.84651 | -72.64438 | 39907 ft | 445 kts | 263° |
| 2026-04-20 22:21 | 9.84017 | -72.70691 | 39901 ft | 445 kts | 263° |
| 2026-04-20 22:21 | 9.83383 | -72.76923 | 39902 ft | 445 kts | 263° |
| 2026-04-20 22:22 | 9.82745 | -72.83184 | 39897 ft | 446 kts | 263° |
| 2026-04-20 22:22 | 9.82107 | -72.89434 | 39902 ft | 446 kts | 263° |
| 2026-04-20 22:23 | 9.81465 | -72.95713 | 39895 ft | 447 kts | 263° |
| 2026-04-20 22:23 | 9.80633 | -73.01931 | 39895 ft | 447 kts | 259° |
| 2026-04-20 22:24 | 9.79559 | -73.08148 | 39896 ft | 447 kts | 259° |
| 2026-04-20 22:24 | 9.78482 | -73.14352 | 39896 ft | 448 kts | 259° |
| 2026-04-20 22:25 | 9.77429 | -73.20611 | 39888 ft | 449 kts | 259° |
| 2026-04-20 22:25 | 9.76390 | -73.26848 | 39889 ft | 449 kts | 259° |
| 2026-04-20 22:26 | 9.75352 | -73.33072 | 39879 ft | 450 kts | 259° |
| 2026-04-20 22:26 | 9.74305 | -73.39360 | 39881 ft | 450 kts | 259° |
| 2026-04-20 22:27 | 9.72736 | -73.48757 | 39880 ft | 451 kts | 259° |
| 2026-04-20 22:27 | 9.71686 | -73.55024 | 39875 ft | 451 kts | 259° |
| 2026-04-20 22:28 | 9.70639 | -73.61278 | 39884 ft | 451 kts | 259° |
| 2026-04-20 22:28 | 9.69589 | -73.67538 | 39878 ft | 452 kts | 259° |
| 2026-04-20 22:29 | 9.68542 | -73.73794 | 39880 ft | 452 kts | 259° |
| 2026-04-20 22:29 | 9.67494 | -73.80101 | 39878 ft | 452 kts | 259° |
| 2026-04-20 22:30 | 9.66452 | -73.86372 | 39869 ft | 452 kts | 259° |
| 2026-04-20 22:30 | 9.65405 | -73.92670 | 39869 ft | 452 kts | 259° |
| 2026-04-20 22:31 | 9.64363 | -73.98923 | 39871 ft | 452 kts | 259° |
| 2026-04-20 22:31 | 9.63314 | -74.05214 | 39870 ft | 452 kts | 259° |
| 2026-04-20 22:32 | 9.62263 | -74.11499 | 39871 ft | 452 kts | 259° |
| 2026-04-20 22:32 | 9.61209 | -74.17801 | 39869 ft | 452 kts | 259° |
| 2026-04-20 22:33 | 9.60159 | -74.24073 | 39871 ft | 452 kts | 259° |
| 2026-04-20 22:33 | 9.59104 | -74.30368 | 39869 ft | 453 kts | 259° |
| 2026-04-20 22:34 | 9.58051 | -74.36641 | 39862 ft | 453 kts | 259° |
| 2026-04-20 22:34 | 9.56995 | -74.42925 | 39859 ft | 453 kts | 259° |
| 2026-04-20 22:35 | 9.55935 | -74.49234 | 39864 ft | 453 kts | 259° |
| 2026-04-20 22:35 | 9.54877 | -74.55521 | 39853 ft | 454 kts | 259° |
| 2026-04-20 22:36 | 9.53813 | -74.61826 | 39850 ft | 454 kts | 259° |
| 2026-04-20 22:36 | 9.52753 | -74.68106 | 39846 ft | 454 kts | 259° |
| 2026-04-20 22:37 | 9.51683 | -74.74445 | 39832 ft | 454 kts | 259° |
| 2026-04-20 22:37 | 9.50621 | -74.80724 | 39841 ft | 454 kts | 259° |
| 2026-04-20 22:38 | 9.49543 | -74.87046 | 39846 ft | 454 kts | 259° |
| 2026-04-20 22:38 | 9.48416 | -74.93327 | 39829 ft | 455 kts | 259° |
| 2026-04-20 22:39 | 9.47266 | -74.99646 | 39831 ft | 455 kts | 259° |
| 2026-04-20 22:39 | 9.46123 | -75.05955 | 39830 ft | 455 kts | 259° |
| 2026-04-20 22:40 | 9.44980 | -75.12279 | 39827 ft | 456 kts | 259° |
| 2026-04-20 22:40 | 9.43845 | -75.18567 | 39835 ft | 456 kts | 259° |
| 2026-04-20 22:41 | 9.42703 | -75.24894 | 39830 ft | 456 kts | 259° |
| 2026-04-20 22:41 | 9.41560 | -75.31209 | 39835 ft | 456 kts | 259° |
| 2026-04-20 22:42 | 9.40413 | -75.37540 | 39833 ft | 457 kts | 259° |
| 2026-04-20 22:42 | 9.39265 | -75.43865 | 39832 ft | 457 kts | 259° |
| 2026-04-20 22:43 | 9.38122 | -75.50167 | 39837 ft | 457 kts | 259° |
| 2026-04-20 22:43 | 9.36968 | -75.56516 | 39834 ft | 457 kts | 259° |
| 2026-04-20 22:44 | 9.35815 | -75.62852 | 39831 ft | 458 kts | 259° |
| 2026-04-20 22:44 | 9.34667 | -75.69161 | 39829 ft | 458 kts | 259° |
| 2026-04-20 22:45 | 9.33509 | -75.75515 | 39833 ft | 458 kts | 259° |
| 2026-04-20 22:45 | 9.32350 | -75.81865 | 39832 ft | 458 kts | 259° |
| 2026-04-20 22:46 | 9.31195 | -75.88191 | 39832 ft | 459 kts | 259° |
| 2026-04-20 22:46 | 9.30032 | -75.94547 | 39831 ft | 459 kts | 259° |
| 2026-04-20 22:47 | 9.28870 | -76.00896 | 39834 ft | 459 kts | 259° |
| 2026-04-20 22:47 | 9.27707 | -76.07243 | 39829 ft | 459 kts | 259° |
| 2026-04-20 22:48 | 9.26537 | -76.13623 | 39833 ft | 460 kts | 259° |
| 2026-04-20 22:48 | 9.25368 | -76.19993 | 39832 ft | 460 kts | 259° |
| 2026-04-20 22:49 | 9.24197 | -76.26364 | 39829 ft | 460 kts | 258° |
| 2026-04-20 22:49 | 9.23025 | -76.32731 | 39830 ft | 459 kts | 259° |
| 2026-04-20 22:50 | 9.21856 | -76.39074 | 39829 ft | 459 kts | 259° |
| 2026-04-20 22:50 | 9.20689 | -76.45408 | 39831 ft | 459 kts | 259° |
| 2026-04-20 22:51 | 9.19513 | -76.51781 | 39834 ft | 459 kts | 258° |
| 2026-04-20 22:51 | 9.18341 | -76.58124 | 39830 ft | 459 kts | 258° |
| 2026-04-20 22:52 | 9.17171 | -76.64467 | 39833 ft | 459 kts | 258° |
| 2026-04-20 22:52 | 9.16191 | -76.69757 | 39841 ft | 459 kts | 258° |
| 2026-04-20 22:53 | 9.15010 | -76.76125 | 39845 ft | 459 kts | 258° |
| 2026-04-20 22:53 | 9.13831 | -76.82478 | 39841 ft | 459 kts | 258° |
| 2026-04-20 22:54 | 9.12658 | -76.88797 | 39841 ft | 459 kts | 258° |
| 2026-04-20 22:54 | 9.11473 | -76.95175 | 39841 ft | 459 kts | 258° |
| 2026-04-20 22:55 | 9.10293 | -77.01512 | 39843 ft | 459 kts | 258° |
| 2026-04-20 22:55 | 9.09111 | -77.07855 | 39841 ft | 459 kts | 258° |
| 2026-04-20 22:56 | 9.07922 | -77.14247 | 39844 ft | 459 kts | 258° |
| 2026-04-20 22:56 | 9.06743 | -77.20569 | 39847 ft | 459 kts | 258° |
| 2026-04-20 22:57 | 9.05554 | -77.26940 | 39855 ft | 459 kts | 258° |
| 2026-04-20 22:57 | 9.04371 | -77.33272 | 39862 ft | 459 kts | 258° |
| 2026-04-20 22:58 | 9.03184 | -77.39612 | 39861 ft | 459 kts | 258° |
| 2026-04-20 22:58 | 9.02227 | -77.46019 | 39866 ft | 459 kts | 263° |
| 2026-04-20 22:59 | 9.01582 | -77.52456 | 39863 ft | 460 kts | 263° |
| 2026-04-20 22:59 | 9.00960 | -77.58857 | 39858 ft | 457 kts | 263° |
| 2026-04-20 23:00 | 9.00308 | -77.65218 | 39862 ft | 452 kts | 263° |
| 2026-04-20 23:00 | 8.99637 | -77.71567 | 39295 ft | 457 kts | 263° |
| 2026-04-20 23:01 | 8.99300 | -77.74729 | 38744 ft | 455 kts | 263° |
| 2026-04-20 23:01 | 8.98957 | -77.77946 | 38067 ft | 455 kts | 263° |
| 2026-04-20 23:01 | 8.98618 | -77.81120 | 37402 ft | 455 kts | 263° |
| 2026-04-20 23:01 | 8.98280 | -77.84280 | 36710 ft | 455 kts | 263° |
| 2026-04-20 23:02 | 8.97938 | -77.87478 | 35986 ft | 455 kts | 263° |
| 2026-04-20 23:02 | 8.97597 | -77.90668 | 35164 ft | 458 kts | 263° |
| 2026-04-20 23:02 | 8.97256 | -77.93860 | 34322 ft | 461 kts | 263° |
| 2026-04-20 23:02 | 8.96910 | -77.97092 | 33460 ft | 464 kts | 263° |
| 2026-04-20 23:03 | 8.96561 | -78.00347 | 32807 ft | 461 kts | 263° |
| 2026-04-20 23:03 | 8.96214 | -78.03578 | 32189 ft | 459 kts | 263° |
| 2026-04-20 23:03 | 8.95879 | -78.06763 | 31532 ft | 457 kts | 263° |
| 2026-04-20 23:03 | 8.95576 | -78.09950 | 30767 ft | 458 kts | 264° |
| 2026-04-20 23:04 | 8.95292 | -78.13145 | 30097 ft | 456 kts | 264° |
| 2026-04-20 23:04 | 8.95014 | -78.16346 | 29502 ft | 452 kts | 264° |
| 2026-04-20 23:04 | 8.94741 | -78.19475 | 28977 ft | 447 kts | 264° |
| 2026-04-20 23:04 | 8.94467 | -78.22587 | 28763 ft | 441 kts | 264° |
| 2026-04-20 23:05 | 8.94185 | -78.25738 | 28536 ft | 455 kts | 264° |
| 2026-04-20 23:05 | 8.93896 | -78.28949 | 28304 ft | 468 kts | 264° |
| 2026-04-20 23:05 | 8.93596 | -78.32255 | 27878 ft | 480 kts | 264° |
| 2026-04-20 23:05 | 8.93279 | -78.35739 | 26764 ft | 498 kts | 265° |
| 2026-04-20 23:06 | 8.92964 | -78.39200 | 25783 ft | 495 kts | 265° |
| 2026-04-20 23:06 | 8.92649 | -78.42657 | 24876 ft | 489 kts | 265° |
| 2026-04-20 23:06 | 8.92340 | -78.46043 | 23982 ft | 484 kts | 265° |
| 2026-04-20 23:06 | 8.92032 | -78.49421 | 23067 ft | 480 kts | 265° |
| 2026-04-20 23:07 | 8.91727 | -78.52764 | 22184 ft | 475 kts | 265° |
| 2026-04-20 23:07 | 8.91421 | -78.56102 | 21281 ft | 470 kts | 265° |
| 2026-04-20 23:07 | 8.91123 | -78.59354 | 20414 ft | 465 kts | 265° |
| 2026-04-20 23:07 | 8.90825 | -78.62607 | 19528 ft | 459 kts | 265° |
| 2026-04-20 23:08 | 8.90534 | -78.65791 | 18660 ft | 454 kts | 265° |
| 2026-04-20 23:08 | 8.90247 | -78.68937 | 17780 ft | 449 kts | 265° |
| 2026-04-20 23:08 | 8.89956 | -78.72102 | 16904 ft | 443 kts | 265° |
| 2026-04-20 23:08 | 8.89674 | -78.75171 | 16046 ft | 437 kts | 265° |
| 2026-04-20 23:09 | 8.89396 | -78.78194 | 15187 ft | 432 kts | 265° |
| 2026-04-20 23:09 | 8.89119 | -78.81192 | 14332 ft | 426 kts | 265° |
| 2026-04-20 23:09 | 8.88843 | -78.84184 | 13481 ft | 421 kts | 265° |
| 2026-04-20 23:09 | 8.88575 | -78.87095 | 12648 ft | 415 kts | 265° |
| 2026-04-20 23:10 | 8.88310 | -78.89968 | 11829 ft | 409 kts | 265° |
| 2026-04-20 23:10 | 8.88046 | -78.92829 | 11073 ft | 402 kts | 265° |
| 2026-04-20 23:10 | 8.87789 | -78.95606 | 10750 ft | 386 kts | 265° |
| 2026-04-20 23:10 | 8.87544 | -78.98240 | 10560 ft | 367 kts | 265° |
| 2026-04-20 23:11 | 8.87337 | -79.00447 | 10413 ft | 352 kts | 265° |
| 2026-04-20 23:11 | 8.87114 | -79.02845 | 10262 ft | 337 kts | 265° |
| 2026-04-20 23:11 | 8.86898 | -79.05182 | 10117 ft | 323 kts | 266° |
| 2026-04-20 23:11 | 8.86693 | -79.07401 | 9990 ft | 310 kts | 266° |
| 2026-04-20 23:12 | 8.86498 | -79.09502 | 9969 ft | 295 kts | 266° |
| 2026-04-20 23:12 | 8.86303 | -79.11599 | 9375 ft | 301 kts | 266° |
| 2026-04-20 23:12 | 8.86110 | -79.13689 | 8917 ft | 301 kts | 266° |
| 2026-04-20 23:12 | 8.85914 | -79.15807 | 8528 ft | 300 kts | 266° |
| 2026-04-20 23:13 | 8.85720 | -79.17892 | 8137 ft | 298 kts | 266° |
| 2026-04-20 23:13 | 8.85527 | -79.19977 | 7744 ft | 297 kts | 266° |
| 2026-04-20 23:13 | 8.85333 | -79.22057 | 7353 ft | 295 kts | 266° |
| 2026-04-20 23:13 | 8.85143 | -79.24097 | 6967 ft | 294 kts | 266° |
| 2026-04-20 23:14 | 8.84990 | -79.25738 | 6663 ft | 292 kts | 266° |
| 2026-04-20 23:14 | 8.84799 | -79.27779 | 6262 ft | 286 kts | 266° |
| 2026-04-20 23:14 | 8.84614 | -79.29761 | 5880 ft | 278 kts | 266° |
| 2026-04-20 23:14 | 8.84436 | -79.31654 | 5528 ft | 269 kts | 266° |
| 2026-04-20 23:15 | 8.84261 | -79.33522 | 5187 ft | 261 kts | 266° |
| 2026-04-20 23:15 | 8.84092 | -79.35322 | 4864 ft | 253 kts | 266° |
| 2026-04-20 23:15 | 8.83930 | -79.37063 | 4571 ft | 248 kts | 266° |
| 2026-04-20 23:15 | 8.83778 | -79.38827 | 4269 ft | 251 kts | 271° |
| 2026-04-20 23:16 | 8.84201 | -79.40529 | 3963 ft | 256 kts | 298° |
| 2026-04-20 23:16 | 8.85104 | -79.42080 | 3811 ft | 258 kts | 304° |
| 2026-04-20 23:16 | 8.86062 | -79.43579 | 3637 ft | 244 kts | 304° |
| 2026-04-20 23:16 | 8.86947 | -79.44969 | 3523 ft | 229 kts | 304° |
| 2026-04-20 23:17 | 8.87785 | -79.46290 | 3414 ft | 213 kts | 307° |
| 2026-04-20 23:17 | 8.88853 | -79.47176 | 3349 ft | 190 kts | 341° |
| 2026-04-20 23:17 | 8.90125 | -79.47359 | 3147 ft | 186 kts | 8° |
| 2026-04-20 23:17 | 8.91347 | -79.46941 | 2949 ft | 187 kts | 31° |
| 2026-04-20 23:18 | 8.92493 | -79.46278 | 2753 ft | 190 kts | 30° |
| 2026-04-20 23:18 | 8.93630 | -79.45631 | 2509 ft | 185 kts | 31° |
| 2026-04-20 23:18 | 8.94741 | -79.45001 | 2270 ft | 180 kts | 31° |
| 2026-04-20 23:18 | 8.95819 | -79.44383 | 2040 ft | 173 kts | 32° |
| 2026-04-20 23:19 | 8.96865 | -79.43788 | 1833 ft | 172 kts | 27° |
| 2026-04-20 23:19 | 8.97869 | -79.43208 | 1582 ft | 162 kts | 26° |
| 2026-04-20 23:19 | 8.98825 | -79.42661 | 1424 ft | 157 kts | 26° |
| 2026-04-20 23:19 | 8.99769 | -79.42121 | 1177 ft | 154 kts | 28° |
| 2026-04-20 23:20 | 9.00691 | -79.41593 | 964 ft | 149 kts | 28° |
| 2026-04-20 23:20 | 9.01575 | -79.41087 | 778 ft | 146 kts | 28° |
| 2026-04-20 23:20 | 9.02466 | -79.40577 | 591 ft | 147 kts | 28° |
| 2026-04-20 23:20 | 9.03356 | -79.40069 | 373 ft | 148 kts | 28° |
| 2026-04-20 23:21 | 9.04256 | -79.39550 | 181 ft | 147 kts | 27° |
| 2026-04-20 23:21 | 9.05125 | -79.39055 | 36 ft | 138 kts | 28° |
| 2026-04-20 23:21 | 9.05859 | -79.38639 | 31 ft | 102 kts | 29° |
| 2026-04-20 23:21 | 9.06320 | -79.38382 | 29 ft | 46 kts | 15° |
| 2026-04-20 23:22 | 9.06556 | -79.38377 | 29 ft | 25 kts | 359° |
| 2026-04-20 23:22 | 9.06653 | -79.38459 | 29 ft | 18 kts | 238° |
| 2026-04-20 23:22 | 9.06555 | -79.38515 | 29 ft | 15 kts | 207° |
| 2026-04-20 23:22 | 9.06470 | -79.38559 | 29 ft | 13 kts | 207° |
| 2026-04-20 23:23 | 9.06372 | -79.38611 | 29 ft | 25 kts | 213° |
| 2026-04-20 23:23 | 9.06392 | -79.38748 | 29 ft | 20 kts | 271° |
| 2026-04-20 23:23 | 9.06298 | -79.38791 | 29 ft | 15 kts | 178° |
| 2026-04-20 23:23 | 9.06141 | -79.38848 | 29 ft | 30 kts | 229° |
| 2026-04-20 23:24 | 9.06013 | -79.39004 | 29 ft | 28 kts | 217° |
| 2026-04-20 23:24 | 9.05935 | -79.38975 | 29 ft | 3 kts | 121° |
| 2026-04-20 23:24 | 9.05932 | -79.38970 | 29 ft | 1 kts | 120° |
| 2026-04-20 23:24 | 9.05932 | -79.38969 | 29 ft | 0 kts | 120° |